createdAt,value
2023-03-20T00:01:31.275Z,70.45
2023-03-20T00:03:59.629Z,69.97
2023-03-20T00:06:32.632Z,69.45
2023-03-20T00:09:07.223Z,69.18
2023-03-20T00:11:48.423Z,69.17
2023-03-20T00:14:19.474Z,69.07
2023-03-20T00:16:49.725Z,69.35
2023-03-20T00:19:27.666Z,69.51
2023-03-20T00:21:56.204Z,69.88
2023-03-20T00:24:25.828Z,69.85
2023-03-20T00:26:54.494Z,69.89
2023-03-20T00:29:28.883Z,69.28
2023-03-20T00:31:57.773Z,68.63
2023-03-20T00:34:32.756Z,68.51
2023-03-20T00:37:00.996Z,68.88
2023-03-20T00:39:31.913Z,68.32
2023-03-20T00:42:08.734Z,67.97
2023-03-20T00:44:36.807Z,67.85
2023-03-20T00:47:13.423Z,68.26
2023-03-20T00:49:42.056Z,67.92
2023-03-20T00:52:13.611Z,68.79
2023-03-20T00:54:41.842Z,68.67
2023-03-20T00:57:15.717Z,68.59
2023-03-20T00:59:59.983Z,68.59
2023-03-20T01:02:29.481Z,68.17
2023-03-20T01:04:58.573Z,69.03
2023-03-20T01:07:27.910Z,69.04
2023-03-20T01:09:56.961Z,68.93
2023-03-20T01:12:25.585Z,68.59
2023-03-20T01:14:56.944Z,68.27
2023-03-20T01:17:28.176Z,69.55
2023-03-20T01:19:56.746Z,69.67
2023-03-20T01:22:25.040Z,69.41
2023-03-20T01:24:53.498Z,69.85
2023-03-20T01:27:21.740Z,69.08
2023-03-20T01:29:50.144Z,68.32
2023-03-20T01:32:19.955Z,68.14
2023-03-20T01:34:51.441Z,68.24
2023-03-20T01:37:28.806Z,68.96
2023-03-20T01:40:01.389Z,68.85
2023-03-20T01:42:32.322Z,69.06
2023-03-20T01:45:00.785Z,69.28
2023-03-20T01:47:29.821Z,68.78
2023-03-20T01:50:22.968Z,69.00
2023-03-20T01:53:17.376Z,69.12
2023-03-20T01:56:01.787Z,68.10
2023-03-20T01:58:45.160Z,67.70
2023-03-20T02:01:14.761Z,66.88
2023-03-20T02:03:48.462Z,67.06
2023-03-20T02:06:17.011Z,66.82
2023-03-20T02:09:02.167Z,66.71
2023-03-20T02:11:34.526Z,66.37
2023-03-20T02:14:04.235Z,65.77
2023-03-20T02:16:39.351Z,65.83
2023-03-20T02:19:46.558Z,66.14
2023-03-20T02:22:52.555Z,66.80
2023-03-20T02:25:39.697Z,67.24
2023-03-20T02:28:39.678Z,66.55
2023-03-20T02:31:14.261Z,67.06
2023-03-20T02:33:42.627Z,67.83
2023-03-20T02:36:46.789Z,67.17
2023-03-20T02:39:33.539Z,65.93
2023-03-20T02:42:20.002Z,67.23
2023-03-20T02:45:20.453Z,65.04
2023-03-20T02:48:17.343Z,64.69
2023-03-20T02:50:46.151Z,66.47
2023-03-20T02:53:35.200Z,65.48
2023-03-20T02:56:23.390Z,62.59
2023-03-20T02:59:16.990Z,62.78
2023-03-20T03:01:52.185Z,64.50
2023-03-20T03:04:27.985Z,64.57
2023-03-20T03:06:59.420Z,65.20
2023-03-20T03:09:46.341Z,64.65
2023-03-20T03:12:23.967Z,65.06
2023-03-20T03:14:56.958Z,64.97
2023-03-20T03:17:31.524Z,65.32
2023-03-20T03:20:05.931Z,65.66
2023-03-20T03:22:36.447Z,64.59
2023-03-20T03:25:05.146Z,64.25
2023-03-20T03:27:43.030Z,65.05
2023-03-20T03:30:24.714Z,65.17
2023-03-20T03:33:21.081Z,64.53
2023-03-20T03:35:53.354Z,63.37
2023-03-20T03:38:27.321Z,60.90
2023-03-20T03:41:05.063Z,60.64
2023-03-20T03:44:24.951Z,63.16
2023-03-20T03:47:25.584Z,63.57
2023-03-20T03:50:03.313Z,62.80
2023-03-20T03:52:34.844Z,63.47
2023-03-20T03:55:11.773Z,64.56
2023-03-20T03:58:16.507Z,64.29
2023-03-20T04:00:48.116Z,64.36
2023-03-20T04:03:17.539Z,63.78
2023-03-20T04:05:47.369Z,63.71
2023-03-20T04:08:16.621Z,63.70
2023-03-20T04:10:46.071Z,64.11
2023-03-20T04:13:14.321Z,63.58
2023-03-20T04:15:43.936Z,63.26
2023-03-20T04:18:17.406Z,63.40
2023-03-20T04:20:48.057Z,63.94
2023-03-20T04:23:17.829Z,62.65
2023-03-20T04:25:46.083Z,63.43
2023-03-20T04:28:16.694Z,63.64
2023-03-20T04:30:57.610Z,64.36
2023-03-20T04:33:48.857Z,64.51
2023-03-20T04:36:37.494Z,64.58
2023-03-20T04:39:07.884Z,64.52
2023-03-20T04:41:36.094Z,64.72
2023-03-20T04:44:04.715Z,64.67
2023-03-20T04:46:34.049Z,64.45
2023-03-20T04:49:03.961Z,62.60
2023-03-20T04:51:32.227Z,62.72
2023-03-20T04:54:00.426Z,63.70
2023-03-20T04:56:28.744Z,64.92
2023-03-20T04:59:09.487Z,63.60
2023-03-20T05:01:37.834Z,65.06
2023-03-20T05:04:06.418Z,64.86
2023-03-20T05:06:36.064Z,63.55
2023-03-20T05:09:05.196Z,64.78
2023-03-20T05:11:35.611Z,63.47
2023-03-20T05:14:06.964Z,62.50
2023-03-20T05:16:44.372Z,64.01
2023-03-20T05:19:24.573Z,63.79
2023-03-20T05:22:17.401Z,63.67
2023-03-20T05:25:18.778Z,64.07
2023-03-20T05:28:01.264Z,64.58
2023-03-20T05:30:35.745Z,64.89
2023-03-20T05:33:26.648Z,62.63
2023-03-20T05:36:07.878Z,63.04
2023-03-20T05:38:51.027Z,63.26
2023-03-20T05:41:45.826Z,62.75
2023-03-20T05:44:34.821Z,63.01
2023-03-20T05:47:26.030Z,62.82
2023-03-20T05:50:05.110Z,62.87
2023-03-20T05:52:51.094Z,62.85
2023-03-20T05:55:45.628Z,63.38
2023-03-20T05:58:35.263Z,62.99
2023-03-20T06:01:25.113Z,60.44
2023-03-20T06:04:00.879Z,61.11
2023-03-20T06:07:05.159Z,60.39
2023-03-20T06:09:34.574Z,59.23
2023-03-20T06:12:06.239Z,60.94
2023-03-20T06:14:40.013Z,58.13
2023-03-20T06:17:15.436Z,56.72
2023-03-20T06:19:44.437Z,55.50
2023-03-20T06:22:16.268Z,57.13
2023-03-20T06:24:45.209Z,57.69
2023-03-20T06:27:16.229Z,58.03
2023-03-20T06:29:48.394Z,58.03
2023-03-20T06:32:20.918Z,58.08
2023-03-20T06:34:50.826Z,57.66
2023-03-20T06:37:20.987Z,57.56
2023-03-20T06:39:50.896Z,57.24
2023-03-20T06:42:20.620Z,58.13
2023-03-20T06:44:50.005Z,57.89
2023-03-20T06:47:44.714Z,57.71
2023-03-20T06:50:14.183Z,57.87
2023-03-20T06:52:43.274Z,57.75
2023-03-20T06:55:37.972Z,57.75
2023-03-20T06:58:07.079Z,58.45
2023-03-20T07:00:36.038Z,57.28
2023-03-20T07:03:06.844Z,56.03
2023-03-20T07:05:35.737Z,54.47
2023-03-20T07:08:07.575Z,51.93
2023-03-20T07:10:36.556Z,50.81
2023-03-20T07:13:04.881Z,51.39
2023-03-20T07:15:34.863Z,51.41
2023-03-20T07:18:06.239Z,50.69
2023-03-20T07:20:34.975Z,49.71
2023-03-20T07:23:04.110Z,49.12
2023-03-20T07:25:42.143Z,49.13
2023-03-20T07:28:16.806Z,46.92
2023-03-20T07:30:50.964Z,44.57
2023-03-20T07:33:22.181Z,42.32
2023-03-20T07:35:58.116Z,41.67
2023-03-20T07:38:29.805Z,39.95
2023-03-20T07:41:10.661Z,39.97
2023-03-20T07:43:41.939Z,38.53
2023-03-20T07:46:31.158Z,39.10
2023-03-20T07:49:02.159Z,39.09
2023-03-20T07:51:34.222Z,41.59
2023-03-20T07:54:05.118Z,41.34
2023-03-20T07:56:33.801Z,42.19
2023-03-20T07:59:02.967Z,41.22
2023-03-20T08:01:31.114Z,41.31
2023-03-20T08:03:59.913Z,40.28
2023-03-20T08:06:28.330Z,40.18
2023-03-20T08:08:56.894Z,39.33
2023-03-20T08:11:25.408Z,39.11
2023-03-20T08:13:56.604Z,38.53
2023-03-20T08:16:26.151Z,37.69
2023-03-20T08:18:58.755Z,36.67
2023-03-20T08:21:30.682Z,35.95
2023-03-20T08:23:59.051Z,35.33
2023-03-20T08:26:27.351Z,34.45
2023-03-20T08:28:56.079Z,32.05
2023-03-20T08:31:25.109Z,31.72
2023-03-20T08:33:57.289Z,31.09
2023-03-20T08:36:25.771Z,29.05
2023-03-20T08:38:54.364Z,28.50
2023-03-20T08:41:25.538Z,26.90
2023-03-20T08:43:54.070Z,25.67
2023-03-20T08:46:22.354Z,25.57
2023-03-20T08:48:51.331Z,25.36
2023-03-20T08:51:21.095Z,26.59
2023-03-20T08:53:49.449Z,26.31
2023-03-20T08:56:17.732Z,26.32
2023-03-20T08:58:46.294Z,26.28
2023-03-20T09:01:15.698Z,26.04
2023-03-20T09:03:44.189Z,25.64
2023-03-20T09:06:12.908Z,25.75
2023-03-20T09:08:41.701Z,25.67
2023-03-20T09:11:10.007Z,26.19
2023-03-20T09:13:38.442Z,25.80
2023-03-20T09:16:07.410Z,25.21
2023-03-20T09:18:36.117Z,25.14
2023-03-20T09:21:05.297Z,24.71
2023-03-20T09:23:33.831Z,23.97
2023-03-20T09:26:02.240Z,23.71
2023-03-20T09:28:30.314Z,24.64
2023-03-20T09:31:00.135Z,24.24
2023-03-20T09:33:28.658Z,23.17
2023-03-20T09:35:57.060Z,23.84
2023-03-20T09:38:25.627Z,23.06
2023-03-20T09:40:55.068Z,22.86
2023-03-20T09:43:29.998Z,22.13
2023-03-20T09:46:04.888Z,21.32
2023-03-20T09:48:36.436Z,21.11
2023-03-20T09:51:07.724Z,21.24
2023-03-20T09:53:41.447Z,21.14
2023-03-20T09:56:17.937Z,20.77
2023-03-20T09:58:55.231Z,21.17
2023-03-20T10:01:33.582Z,21.31
2023-03-20T10:04:09.415Z,20.70
2023-03-20T10:06:38.897Z,20.60
2023-03-20T10:09:18.378Z,20.45
2023-03-20T10:12:14.170Z,20.18
2023-03-20T10:15:27.693Z,20.11
2023-03-20T10:18:15.122Z,20.84
2023-03-20T10:20:51.643Z,21.60
2023-03-20T10:23:46.175Z,22.34
2023-03-20T10:26:18.303Z,22.66
2023-03-20T10:28:56.164Z,22.93
2023-03-20T10:31:43.171Z,23.38
2023-03-20T10:34:11.618Z,24.52
2023-03-20T10:36:42.620Z,24.12
2023-03-20T10:39:20.020Z,25.01
2023-03-20T10:41:54.153Z,24.88
2023-03-20T10:44:41.126Z,25.23
2023-03-20T10:47:14.259Z,24.45
2023-03-20T10:49:50.559Z,24.31
2023-03-20T10:52:33.287Z,24.05
2023-03-20T10:55:10.620Z,24.31
2023-03-20T10:57:42.726Z,23.64
2023-03-20T11:00:24.142Z,24.13
2023-03-20T11:02:53.030Z,24.08
2023-03-20T11:05:37.082Z,24.09
2023-03-20T11:08:07.772Z,23.66
2023-03-20T11:10:38.132Z,23.82
2023-03-20T11:13:28.264Z,23.89
2023-03-20T11:15:56.785Z,23.65
2023-03-20T11:18:31.296Z,24.27
2023-03-20T11:21:03.180Z,24.23
2023-03-20T11:23:35.954Z,23.57
2023-03-20T11:26:19.973Z,23.80
2023-03-20T11:28:56.273Z,25.33
2023-03-20T11:31:35.645Z,24.61
2023-03-20T11:34:08.856Z,25.51
2023-03-20T11:36:41.456Z,25.45
2023-03-20T11:39:28.968Z,25.06
2023-03-20T11:42:00.575Z,25.89
2023-03-20T11:44:31.634Z,26.26
2023-03-20T11:47:03.801Z,25.93
2023-03-20T11:49:34.933Z,25.78
2023-03-20T11:52:13.177Z,25.80
2023-03-20T11:54:49.878Z,25.57
2023-03-20T11:57:40.503Z,25.71
2023-03-20T12:00:12.189Z,25.96
2023-03-20T12:02:41.917Z,25.21
2023-03-20T12:05:31.964Z,25.26
2023-03-20T12:08:06.683Z,25.61
2023-03-20T12:10:41.701Z,25.64
2023-03-20T12:13:17.255Z,25.64
2023-03-20T12:15:52.320Z,25.63
2023-03-20T12:18:38.748Z,26.70
2023-03-20T12:21:17.041Z,27.33
2023-03-20T12:23:53.964Z,27.38
2023-03-20T12:26:35.913Z,27.14
2023-03-20T12:29:21.606Z,27.32
2023-03-20T12:31:56.244Z,27.71
2023-03-20T12:34:32.387Z,28.04
2023-03-20T12:37:01.538Z,28.08
2023-03-20T12:39:41.660Z,27.80
2023-03-20T12:42:39.696Z,27.80
2023-03-20T12:45:11.337Z,27.28
2023-03-20T12:48:07.970Z,27.59
2023-03-20T12:50:39.929Z,27.29
2023-03-20T12:53:43.268Z,27.45
2023-03-20T12:56:41.482Z,27.50
2023-03-20T12:59:38.363Z,26.83
2023-03-20T13:02:38.769Z,27.83
2023-03-20T13:05:37.001Z,28.18
2023-03-20T13:08:43.366Z,28.12
2023-03-20T13:11:36.699Z,28.98
2023-03-20T13:14:14.992Z,29.98
2023-03-20T13:16:51.442Z,29.92
2023-03-20T13:19:22.585Z,29.26
2023-03-20T13:22:16.480Z,29.13
2023-03-20T13:24:50.150Z,28.87
2023-03-20T13:27:27.574Z,29.25
2023-03-20T13:30:19.547Z,33.29
2023-03-20T13:33:09.078Z,29.38
2023-03-20T13:35:58.050Z,33.33
2023-03-20T13:38:36.354Z,31.52
2023-03-20T13:41:11.676Z,31.24
2023-03-20T13:43:46.066Z,30.26
2023-03-20T13:46:19.240Z,36.99
2023-03-20T13:48:47.559Z,30.70
2023-03-20T13:51:44.249Z,29.56
2023-03-20T13:54:44.541Z,29.32
2023-03-20T13:57:37.138Z,33.40
2023-03-20T14:00:47.336Z,29.75
2023-03-20T14:03:35.961Z,29.95
2023-03-20T14:06:58.745Z,29.44
2023-03-20T14:09:36.289Z,29.63
2023-03-20T14:12:13.538Z,30.70
2023-03-20T14:14:50.706Z,31.05
2023-03-20T14:17:21.030Z,31.30
2023-03-20T14:19:51.745Z,31.55
2023-03-20T14:22:30.715Z,32.30
2023-03-20T14:25:21.256Z,32.29
2023-03-20T14:28:13.015Z,32.47
2023-03-20T14:30:44.066Z,32.92
2023-03-20T14:33:15.601Z,33.02
2023-03-20T14:36:11.579Z,33.05
2023-03-20T14:38:54.305Z,33.07
2023-03-20T14:41:31.781Z,32.78
2023-03-20T14:44:25.941Z,32.56
2023-03-20T14:47:05.637Z,32.77
2023-03-20T14:49:42.767Z,32.74
2023-03-20T14:52:50.309Z,32.36
2023-03-20T14:55:18.482Z,33.29
2023-03-20T14:57:56.229Z,33.30
2023-03-20T15:00:28.503Z,33.13
2023-03-20T15:03:02.654Z,32.76
2023-03-20T15:05:37.120Z,32.98
2023-03-20T15:08:22.581Z,33.13
2023-03-20T15:10:55.608Z,33.76
2023-03-20T15:13:26.388Z,34.39
2023-03-20T15:15:57.303Z,33.61
2023-03-20T15:18:28.073Z,33.60
2023-03-20T15:20:57.980Z,33.46
2023-03-20T15:23:26.486Z,33.79
2023-03-20T15:25:54.815Z,33.94
2023-03-20T15:28:25.683Z,33.77
2023-03-20T15:30:58.636Z,33.39
2023-03-20T15:33:33.097Z,33.51
2023-03-20T15:36:09.138Z,33.82
2023-03-20T15:38:38.790Z,33.67
2023-03-20T15:41:08.795Z,33.63
2023-03-20T15:43:38.331Z,33.92
2023-03-20T15:46:17.915Z,34.33
2023-03-20T15:48:48.939Z,34.13
2023-03-20T15:51:19.202Z,34.21
2023-03-20T15:53:49.322Z,34.10
2023-03-20T15:56:20.585Z,34.55
2023-03-20T15:58:53.504Z,34.71
2023-03-20T16:01:25.020Z,35.05
2023-03-20T16:03:59.443Z,35.27
2023-03-20T16:06:29.524Z,34.60
2023-03-20T16:09:06.370Z,34.63
2023-03-20T16:11:40.547Z,34.68
2023-03-20T16:14:24.969Z,34.85
2023-03-20T16:16:56.432Z,35.14
2023-03-20T16:19:27.032Z,35.36
2023-03-20T16:22:02.834Z,35.62
2023-03-20T16:24:36.827Z,36.03
2023-03-20T16:27:10.973Z,36.13
2023-03-20T16:29:43.685Z,36.12
2023-03-20T16:32:27.142Z,36.86
2023-03-20T16:34:58.340Z,37.61
2023-03-20T16:37:29.266Z,38.25
2023-03-20T16:40:20.986Z,39.88
2023-03-20T16:42:49.209Z,40.65
2023-03-20T16:45:26.687Z,40.30
2023-03-20T16:48:22.380Z,40.44
2023-03-20T16:51:00.400Z,41.02
2023-03-20T16:53:36.245Z,41.48
2023-03-20T16:56:06.072Z,42.52
2023-03-20T16:58:35.490Z,42.49
2023-03-20T17:01:06.486Z,42.88
2023-03-20T17:03:38.218Z,43.42
2023-03-20T17:06:26.557Z,43.35
2023-03-20T17:09:00.360Z,43.45
2023-03-20T17:11:33.090Z,44.42
2023-03-20T17:14:01.669Z,45.34
2023-03-20T17:16:30.833Z,46.80
2023-03-20T17:19:05.650Z,47.29
2023-03-20T17:21:34.648Z,48.87
2023-03-20T17:24:03.077Z,51.76
2023-03-20T17:26:31.733Z,52.42
2023-03-20T17:28:59.981Z,52.68
2023-03-20T17:31:28.432Z,53.18
2023-03-20T17:33:56.847Z,53.64
2023-03-20T17:36:28.451Z,54.43
2023-03-20T17:38:58.544Z,56.57
2023-03-20T17:41:28.265Z,57.20
2023-03-20T17:43:56.746Z,57.08
2023-03-20T17:46:30.557Z,55.50
2023-03-20T17:49:03.250Z,55.71
2023-03-20T17:51:31.765Z,55.45
2023-03-20T17:53:59.874Z,55.95
2023-03-20T17:56:30.318Z,55.82
2023-03-20T17:59:06.855Z,55.86
2023-03-20T18:01:35.104Z,56.93
2023-03-20T18:04:03.431Z,57.58
2023-03-20T18:06:33.549Z,58.51
2023-03-20T18:09:02.151Z,59.17
2023-03-20T18:11:30.629Z,58.53
2023-03-20T18:13:59.951Z,59.19
2023-03-20T18:16:28.222Z,59.78
2023-03-20T18:18:57.096Z,58.76
2023-03-20T18:21:25.206Z,56.55
2023-03-20T18:23:53.421Z,57.41
2023-03-20T18:26:25.315Z,57.98
2023-03-20T18:28:55.357Z,58.35
2023-03-20T18:31:23.637Z,58.94
2023-03-20T18:33:53.070Z,59.12
2023-03-20T18:36:24.063Z,58.79
2023-03-20T18:38:52.852Z,58.86
2023-03-20T18:41:21.433Z,57.70
2023-03-20T18:43:50.975Z,58.68
2023-03-20T18:46:21.636Z,58.39
2023-03-20T18:48:52.092Z,58.64
2023-03-20T18:51:21.813Z,58.30
2023-03-20T18:53:50.079Z,57.44
2023-03-20T18:56:21.840Z,56.27
2023-03-20T18:58:50.275Z,57.13
2023-03-20T19:01:19.729Z,58.14
2023-03-20T19:03:48.316Z,58.28
2023-03-20T19:06:20.159Z,58.44
2023-03-20T19:08:49.071Z,58.29
2023-03-20T19:11:21.249Z,58.91
2023-03-20T19:13:52.756Z,58.77
2023-03-20T19:16:39.097Z,59.57
2023-03-20T19:19:09.054Z,59.28
2023-03-20T19:21:37.419Z,58.57
2023-03-20T19:24:07.524Z,58.03
2023-03-20T19:26:37.561Z,57.85
2023-03-20T19:29:09.599Z,58.48
2023-03-20T19:31:37.975Z,58.18
2023-03-20T19:34:06.879Z,56.87
2023-03-20T19:36:38.040Z,57.48
2023-03-20T19:39:08.717Z,57.42
2023-03-20T19:41:37.321Z,56.99
2023-03-20T19:44:07.034Z,56.73
2023-03-20T19:46:40.096Z,56.92
2023-03-20T19:49:18.013Z,57.38
2023-03-20T19:51:48.325Z,57.21
2023-03-20T19:54:17.134Z,56.91
2023-03-20T19:56:45.560Z,57.55
2023-03-20T19:59:16.316Z,58.26
2023-03-20T20:01:46.145Z,58.35
2023-03-20T20:04:15.641Z,58.05
2023-03-20T20:06:47.234Z,58.52
2023-03-20T20:09:16.364Z,58.94
2023-03-20T20:11:44.604Z,58.43
2023-03-20T20:14:14.963Z,58.65
2023-03-20T20:16:45.680Z,59.51
2023-03-20T20:19:14.209Z,59.54
2023-03-20T20:24:31.025Z,59.47
2023-03-20T20:27:15.821Z,59.44
2023-03-20T20:29:53.494Z,58.60
2023-03-20T20:32:24.385Z,58.65
2023-03-20T20:40:31.580Z,57.96
2023-03-20T20:43:02.450Z,57.82
2023-03-20T20:45:32.173Z,57.67
2023-03-20T20:48:02.453Z,57.64
2023-03-20T20:50:32.878Z,57.73
2023-03-20T20:53:02.072Z,57.61
2023-03-20T20:55:31.036Z,57.75
2023-03-20T20:57:59.290Z,57.62
2023-03-20T21:00:47.637Z,57.98
2023-03-20T21:03:16.017Z,57.89
2023-03-20T21:05:44.298Z,58.08
2023-03-20T21:08:14.674Z,58.42
2023-03-20T21:10:45.888Z,58.38
2023-03-20T21:13:15.578Z,58.39
2023-03-20T21:15:45.775Z,58.58
2023-03-20T21:18:14.694Z,59.36
2023-03-20T21:20:43.080Z,59.39
2023-03-20T21:23:11.784Z,59.33
2023-03-20T21:25:41.819Z,59.05
2023-03-20T21:28:11.643Z,59.55
2023-03-20T21:31:09.138Z,59.58
2023-03-20T21:33:32.449Z,59.57
2023-03-20T21:36:00.770Z,59.30
2023-03-20T21:39:01.876Z,60.16
2023-03-20T21:41:17.651Z,60.80
2023-03-20T21:43:47.527Z,61.51
2023-03-20T21:58:21.412Z,65.14
2023-03-20T22:03:28.807Z,65.30
2023-03-20T22:09:45.508Z,66.34
2023-03-20T22:20:59.844Z,67.13
2023-03-20T22:26:52.555Z,68.53
2023-03-20T22:32:38.080Z,68.60
2023-03-20T22:35:05.039Z,68.71
2023-03-20T22:43:16.612Z,69.39
2023-03-20T22:45:52.069Z,69.74
2023-03-20T22:48:28.189Z,69.56
2023-03-20T22:50:56.708Z,69.50
2023-03-20T22:53:24.958Z,69.50
2023-03-20T22:55:53.843Z,70.08
2023-03-20T22:58:22.147Z,70.16
2023-03-20T23:00:50.268Z,69.61
2023-03-20T23:03:33.349Z,69.97
2023-03-20T23:06:21.834Z,70.27
2023-03-20T23:08:55.409Z,70.81
2023-03-20T23:11:26.217Z,70.96
2023-03-20T23:13:54.890Z,71.18
2023-03-20T23:16:23.183Z,70.50
2023-03-20T23:18:51.657Z,70.71
2023-03-20T23:21:20.914Z,71.25
2023-03-20T23:23:49.678Z,71.33
2023-03-20T23:26:22.819Z,71.89
2023-03-20T23:28:53.439Z,71.52
2023-03-20T23:31:26.045Z,71.71
2023-03-20T23:33:56.398Z,71.53
2023-03-20T23:36:36.498Z,71.13
2023-03-20T23:39:08.256Z,71.18
2023-03-20T23:42:03.975Z,71.53
2023-03-20T23:44:25.453Z,72.10
2023-03-20T23:46:55.604Z,72.28
2023-03-20T23:49:23.920Z,72.00
2023-03-20T23:51:52.498Z,72.49
2023-03-20T23:54:20.804Z,72.43
2023-03-20T23:56:48.977Z,72.57
2023-03-20T23:59:24.270Z,72.35
